createdAt,value
2019-04-29T00:00:54.502Z,67.79
2019-04-29T00:03:28.582Z,67.94
2019-04-29T00:06:00.532Z,68.33
2019-04-29T00:08:32.337Z,68.72
2019-04-29T00:11:04.711Z,69.07
2019-04-29T00:13:36.946Z,69.08
2019-04-29T00:16:30.567Z,69.12
2019-04-29T00:19:16.593Z,69.20
2019-04-29T00:21:48.864Z,68.65
2019-04-29T00:24:20.646Z,68.07
2019-04-29T00:26:52.420Z,68.18
2019-04-29T00:29:24.268Z,68.64
2019-04-29T00:31:56.482Z,68.79
2019-04-29T00:34:28.283Z,69.08
2019-04-29T00:37:09.626Z,68.69
2019-04-29T00:40:00.058Z,68.51
2019-04-29T00:42:50.505Z,68.77
2019-04-29T00:45:22.455Z,69.07
2019-04-29T00:47:54.196Z,69.03
2019-04-29T00:50:25.977Z,69.04
2019-04-29T00:52:57.772Z,69.41
2019-04-29T00:55:31.828Z,69.46
2019-04-29T00:58:03.563Z,69.74
2019-04-29T01:00:39.685Z,69.78
2019-04-29T01:03:12.623Z,70.07
2019-04-29T01:05:44.813Z,69.48
2019-04-29T01:08:16.531Z,68.60
2019-04-29T01:10:48.389Z,68.82
2019-04-29T01:13:20.294Z,68.82
2019-04-29T01:15:52.476Z,68.66
2019-04-29T01:18:24.259Z,69.01
2019-04-29T01:20:55.997Z,69.31
2019-04-29T01:23:28.030Z,69.03
2019-04-29T01:26:11.587Z,69.20
2019-04-29T01:28:49.601Z,69.21
2019-04-29T01:31:28.420Z,69.47
2019-04-29T01:34:07.801Z,69.70
2019-04-29T01:36:42.796Z,69.81
2019-04-29T01:39:14.786Z,69.75
2019-04-29T01:42:03.506Z,70.28
2019-04-29T01:44:37.130Z,69.82
2019-04-29T01:47:09.200Z,70.06
2019-04-29T01:49:41.066Z,70.16
2019-04-29T01:52:12.795Z,70.28
2019-04-29T01:54:44.597Z,69.91
2019-04-29T01:57:16.419Z,70.19
2019-04-29T01:59:48.341Z,70.43
2019-04-29T02:02:20.562Z,70.63
2019-04-29T02:04:54.322Z,70.85
2019-04-29T02:07:26.141Z,71.05
2019-04-29T02:10:17.422Z,70.99
2019-04-29T02:12:49.205Z,71.23
2019-04-29T02:15:20.937Z,71.50
2019-04-29T02:17:52.694Z,71.38
2019-04-29T02:20:24.511Z,71.31
2019-04-29T02:23:14.827Z,71.12
2019-04-29T02:25:47.274Z,71.15
2019-04-29T02:28:19.391Z,70.58
2019-04-29T02:30:51.184Z,70.71
2019-04-29T02:33:23.002Z,70.69
2019-04-29T02:35:54.982Z,70.63
2019-04-29T02:38:45.555Z,70.93
2019-04-29T02:41:37.122Z,71.46
2019-04-29T02:44:10.983Z,71.42
2019-04-29T02:46:42.737Z,71.51
2019-04-29T02:49:14.946Z,71.97
2019-04-29T02:51:49.971Z,71.97
2019-04-29T02:54:22.266Z,71.84
2019-04-29T02:57:05.818Z,71.85
2019-04-29T02:59:42.505Z,72.26
2019-04-29T03:02:23.660Z,72.44
2019-04-29T03:05:13.879Z,72.40
2019-04-29T03:07:45.790Z,72.13
2019-04-29T03:10:17.524Z,71.91
2019-04-29T03:12:49.294Z,71.98
2019-04-29T03:15:31.325Z,72.49
2019-04-29T03:18:03.395Z,72.57
2019-04-29T03:21:13.419Z,72.36
2019-04-29T03:23:45.177Z,72.19
2019-04-29T03:26:16.939Z,71.74
2019-04-29T03:28:49.676Z,71.48
2019-04-29T03:31:21.927Z,71.31
2019-04-29T03:33:53.712Z,71.16
2019-04-29T03:36:25.460Z,71.47
2019-04-29T03:38:58.217Z,71.61
2019-04-29T03:41:30.013Z,71.56
2019-04-29T03:44:01.794Z,71.73
2019-04-29T03:46:34.004Z,71.72
2019-04-29T03:49:05.724Z,71.66
2019-04-29T03:51:37.826Z,71.94
2019-04-29T03:54:11.801Z,72.17
2019-04-29T03:56:44.961Z,72.00
2019-04-29T03:59:19.249Z,71.69
2019-04-29T04:02:03.092Z,71.18
2019-04-29T04:04:52.316Z,71.52
2019-04-29T04:07:42.345Z,71.87
2019-04-29T04:10:14.150Z,72.48
2019-04-29T04:12:46.164Z,72.31
2019-04-29T04:15:18.109Z,72.47
2019-04-29T04:18:17.752Z,72.54
2019-04-29T04:20:49.698Z,72.56
2019-04-29T04:23:21.523Z,72.75
2019-04-29T04:25:53.316Z,72.78
2019-04-29T04:28:25.089Z,72.52
2019-04-29T04:30:56.988Z,72.47
2019-04-29T04:33:29.099Z,72.33
2019-04-29T04:36:00.883Z,72.08
2019-04-29T04:38:32.666Z,71.92
2019-04-29T04:41:07.469Z,72.12
2019-04-29T04:43:39.230Z,72.28
2019-04-29T04:46:10.955Z,72.30
2019-04-29T04:48:42.801Z,72.45
2019-04-29T04:51:14.587Z,72.75
2019-04-29T04:53:46.368Z,72.72
2019-04-29T04:56:19.710Z,72.92
2019-04-29T04:58:51.560Z,73.15
2019-04-29T05:01:23.532Z,73.43
2019-04-29T05:03:55.363Z,73.77
2019-04-29T05:06:28.721Z,73.93
2019-04-29T05:09:02.752Z,74.09
2019-04-29T05:11:35.879Z,74.01
2019-04-29T05:14:07.680Z,73.18
2019-04-29T05:16:39.509Z,73.74
2019-04-29T05:19:11.293Z,73.82
2019-04-29T05:21:44.015Z,74.01
2019-04-29T05:24:15.901Z,74.23
2019-04-29T05:26:47.729Z,74.28
2019-04-29T05:29:21.168Z,74.52
2019-04-29T05:31:53.512Z,74.12
2019-04-29T05:34:26.940Z,73.95
2019-04-29T05:37:23.284Z,73.78
2019-04-29T05:39:55.035Z,73.09
2019-04-29T05:42:27.097Z,72.84
2019-04-29T05:45:23.537Z,72.76
2019-04-29T05:48:03.577Z,72.67
2019-04-29T05:51:00.498Z,71.54
2019-04-29T05:53:54.876Z,71.46
2019-04-29T05:56:27.318Z,71.96
2019-04-29T05:58:59.669Z,72.18
2019-04-29T06:01:32.109Z,72.41
2019-04-29T06:04:04.940Z,72.10
2019-04-29T06:06:36.719Z,71.65
2019-04-29T06:09:11.491Z,72.04
2019-04-29T06:11:42.530Z,72.08
2019-04-29T06:14:14.298Z,71.96
2019-04-29T06:16:46.449Z,70.70
2019-04-29T06:19:18.220Z,69.79
2019-04-29T06:21:50.417Z,68.87
2019-04-29T06:24:22.137Z,68.42
2019-04-29T06:26:53.903Z,67.90
2019-04-29T06:29:25.690Z,68.23
2019-04-29T06:31:57.830Z,65.71
2019-04-29T06:34:29.654Z,65.35
2019-04-29T06:37:01.813Z,63.67
2019-04-29T06:39:37.886Z,61.65
2019-04-29T06:42:11.281Z,59.68
2019-04-29T06:44:44.472Z,58.06
2019-04-29T06:47:28.946Z,56.78
2019-04-29T06:50:04.249Z,55.14
2019-04-29T06:52:40.742Z,53.06
2019-04-29T06:55:13.087Z,52.93
2019-04-29T06:57:46.513Z,51.88
2019-04-29T07:00:23.940Z,50.18
2019-04-29T07:02:57.333Z,49.12
2019-04-29T07:05:33.562Z,49.21
2019-04-29T07:08:06.145Z,48.16
2019-04-29T07:10:37.901Z,47.76
2019-04-29T07:13:09.652Z,47.44
2019-04-29T07:15:43.534Z,47.12
2019-04-29T07:18:15.287Z,47.11
2019-04-29T07:20:47.475Z,47.21
2019-04-29T07:23:19.218Z,46.05
2019-04-29T07:25:51.172Z,48.42
2019-04-29T07:28:22.992Z,45.89
2019-04-29T07:31:03.367Z,43.91
2019-04-29T07:33:29.712Z,43.85
2019-04-29T07:36:10.863Z,44.56
2019-04-29T07:38:41.625Z,44.24
2019-04-29T07:41:10.060Z,43.27
2019-04-29T07:43:43.145Z,43.50
2019-04-29T07:46:55.656Z,44.69
2019-04-29T07:49:12.762Z,45.69
2019-04-29T07:51:44.522Z,42.30
2019-04-29T07:54:17.719Z,40.96
2019-04-29T07:56:49.640Z,40.98
2019-04-29T07:59:21.427Z,41.06
2019-04-29T08:01:55.744Z,42.05
2019-04-29T08:04:26.749Z,40.56
2019-04-29T08:07:00.154Z,38.92
2019-04-29T08:09:31.924Z,38.99
2019-04-29T08:12:03.700Z,41.44
2019-04-29T08:14:35.624Z,41.77
2019-04-29T08:17:07.760Z,38.97
2019-04-29T08:19:40.062Z,39.24
2019-04-29T08:22:14.678Z,38.54
2019-04-29T08:24:45.934Z,39.93
2019-04-29T08:27:18.958Z,40.01
2019-04-29T08:29:50.753Z,38.76
2019-04-29T08:32:22.568Z,41.00
2019-04-29T08:34:57.923Z,37.11
2019-04-29T08:37:29.139Z,37.59
2019-04-29T08:40:15.460Z,37.88
2019-04-29T08:42:41.818Z,36.84
2019-04-29T08:45:34.813Z,35.51
2019-04-29T08:48:07.600Z,39.94
2019-04-29T08:50:39.767Z,38.63
2019-04-29T08:53:14.019Z,36.53
2019-04-29T08:55:45.782Z,35.00
2019-04-29T08:58:17.641Z,38.41
2019-04-29T09:00:51.446Z,36.62
2019-04-29T09:03:23.671Z,34.85
2019-04-29T09:06:05.234Z,33.01
2019-04-29T09:08:33.097Z,32.08
2019-04-29T09:11:03.052Z,32.62
2019-04-29T09:13:34.856Z,33.15
2019-04-29T09:16:06.597Z,32.91
2019-04-29T09:18:38.324Z,33.02
2019-04-29T09:21:10.178Z,34.57
2019-04-29T09:23:41.974Z,33.12
2019-04-29T09:26:24.191Z,34.46
2019-04-29T09:28:55.373Z,32.33
2019-04-29T09:31:27.177Z,32.86
2019-04-29T09:34:06.828Z,35.55
2019-04-29T09:36:34.725Z,34.43
2019-04-29T09:39:07.124Z,32.94
2019-04-29T09:41:46.413Z,32.30
2019-04-29T09:44:40.245Z,32.19
2019-04-29T09:47:10.213Z,29.46
2019-04-29T09:49:42.088Z,29.43
2019-04-29T09:52:13.829Z,28.19
2019-04-29T09:54:45.615Z,28.11
2019-04-29T09:57:17.454Z,29.12
2019-04-29T09:59:54.584Z,29.75
2019-04-29T10:02:54.222Z,28.16
2019-04-29T10:05:38.595Z,29.12
2019-04-29T10:08:11.229Z,28.44
2019-04-29T10:10:43.012Z,27.46
2019-04-29T10:13:14.816Z,27.70
2019-04-29T10:16:03.604Z,28.95
2019-04-29T10:18:43.790Z,29.55
2019-04-29T10:21:20.947Z,27.68
2019-04-29T10:23:49.898Z,28.46
2019-04-29T10:26:24.681Z,28.43
2019-04-29T10:29:18.513Z,27.80
2019-04-29T10:31:50.927Z,27.22
2019-04-29T10:34:27.000Z,26.03
2019-04-29T10:36:58.402Z,25.87
2019-04-29T10:39:48.971Z,26.56
2019-04-29T10:42:29.227Z,27.50
2019-04-29T10:45:19.954Z,27.75
2019-04-29T10:48:00.945Z,26.24
2019-04-29T10:50:37.448Z,25.49
2019-04-29T10:53:11.037Z,28.28
2019-04-29T10:55:44.648Z,28.60
2019-04-29T10:58:16.606Z,28.07
2019-04-29T11:02:01.106Z,29.40
2019-04-29T11:04:25.764Z,28.40
2019-04-29T11:06:59.472Z,31.42
2019-04-29T11:09:52.647Z,29.01
2019-04-29T11:12:25.510Z,32.27
2019-04-29T11:14:57.349Z,33.74
2019-04-29T11:17:29.393Z,35.34
2019-04-29T11:20:01.115Z,29.61
2019-04-29T11:22:38.580Z,30.06
2019-04-29T11:25:35.882Z,29.56
2019-04-29T11:28:12.188Z,30.25
2019-04-29T11:30:42.259Z,29.53
2019-04-29T11:33:25.522Z,27.62
2019-04-29T11:36:11.005Z,28.65
2019-04-29T11:38:42.750Z,31.95
2019-04-29T11:41:19.744Z,30.52
2019-04-29T11:43:50.962Z,32.03
2019-04-29T11:46:23.066Z,30.55
2019-04-29T11:48:57.590Z,32.51
2019-04-29T11:52:05.050Z,34.65
2019-04-29T11:54:18.175Z,36.44
2019-04-29T11:56:48.503Z,37.46
2019-04-29T11:59:42.496Z,38.93
2019-04-29T12:02:45.864Z,40.26
2019-04-29T12:05:25.152Z,42.71
2019-04-29T12:07:56.905Z,43.36
2019-04-29T12:10:28.684Z,44.15
2019-04-29T12:13:02.125Z,44.64
2019-04-29T12:15:56.108Z,44.94
2019-04-29T12:18:38.074Z,44.38
2019-04-29T12:21:14.246Z,45.11
2019-04-29T12:23:47.695Z,46.14
2019-04-29T12:26:20.230Z,46.48
2019-04-29T12:28:51.989Z,47.39
2019-04-29T12:31:36.873Z,45.65
2019-04-29T12:34:29.989Z,46.13
2019-04-29T12:37:02.136Z,46.82
2019-04-29T12:39:51.637Z,48.04
2019-04-29T12:42:54.956Z,46.99
2019-04-29T12:45:31.735Z,47.79
2019-04-29T12:48:06.389Z,48.40
2019-04-29T12:50:36.919Z,47.11
2019-04-29T12:53:09.255Z,47.74
2019-04-29T12:55:46.116Z,47.45
2019-04-29T12:58:19.367Z,46.96
2019-04-29T13:00:59.886Z,47.38
2019-04-29T13:03:41.411Z,47.66
2019-04-29T13:06:23.554Z,46.64
2019-04-29T13:08:55.345Z,46.75
2019-04-29T13:11:37.560Z,46.15
2019-04-29T13:14:03.114Z,46.12
2019-04-29T13:17:13.949Z,46.05
2019-04-29T13:20:02.529Z,46.57
2019-04-29T13:22:35.937Z,45.38
2019-04-29T13:25:08.481Z,45.04
2019-04-29T13:27:40.448Z,44.36
2019-04-29T13:30:16.158Z,44.45
2019-04-29T13:32:48.087Z,44.23
2019-04-29T13:35:19.876Z,43.95
2019-04-29T13:37:51.693Z,44.83
2019-04-29T13:40:24.041Z,42.13
2019-04-29T13:42:57.752Z,42.07
2019-04-29T13:45:39.548Z,40.96
2019-04-29T13:48:21.357Z,39.16
2019-04-29T13:51:00.779Z,39.71
2019-04-29T13:53:32.632Z,39.52
2019-04-29T13:56:11.525Z,39.72
2019-04-29T13:58:39.415Z,39.15
2019-04-29T14:01:58.622Z,39.91
2019-04-29T14:04:31.432Z,39.75
2019-04-29T14:07:04.521Z,39.10
2019-04-29T14:09:39.155Z,38.89
2019-04-29T14:12:46.420Z,39.63
2019-04-29T14:14:44.309Z,39.24
2019-04-29T14:17:25.947Z,39.12
2019-04-29T14:19:49.515Z,38.61
2019-04-29T14:22:22.713Z,39.39
2019-04-29T14:24:54.742Z,38.75
2019-04-29T14:27:26.493Z,39.73
2019-04-29T14:29:58.294Z,40.06
2019-04-29T14:32:36.205Z,40.35
2019-04-29T14:35:21.398Z,40.18
2019-04-29T14:37:55.304Z,39.30
2019-04-29T14:40:28.325Z,39.39
2019-04-29T14:43:30.884Z,39.98
2019-04-29T14:46:06.233Z,39.90
2019-04-29T14:48:43.025Z,39.83
2019-04-29T14:51:14.833Z,39.51
2019-04-29T14:53:56.729Z,39.54
2019-04-29T14:56:25.012Z,39.32
2019-04-29T14:59:06.532Z,39.15
2019-04-29T15:01:35.135Z,38.12
2019-04-29T15:04:19.185Z,39.05
2019-04-29T15:06:51.450Z,39.13
2019-04-29T15:09:23.263Z,38.85
2019-04-29T15:12:01.870Z,39.03
2019-04-29T15:14:54.613Z,38.90
2019-04-29T15:17:44.885Z,36.79
2019-04-29T15:20:35.164Z,35.72
2019-04-29T15:23:07.386Z,36.17
2019-04-29T15:25:40.582Z,34.88
2019-04-29T15:28:12.698Z,35.52
2019-04-29T15:30:44.423Z,34.00
2019-04-29T15:33:17.134Z,32.77
2019-04-29T15:35:48.909Z,32.94
2019-04-29T15:38:20.874Z,32.70
2019-04-29T15:40:52.615Z,32.98
2019-04-29T15:43:45.806Z,32.70
2019-04-29T15:45:58.281Z,32.38
2019-04-29T15:48:30.596Z,32.98
2019-04-29T15:51:02.404Z,34.12
2019-04-29T15:53:37.855Z,32.90
2019-04-29T15:56:27.083Z,32.55
2019-04-29T15:58:41.306Z,32.50
2019-04-29T16:01:17.327Z,32.83
2019-04-29T16:03:49.897Z,33.73
2019-04-29T16:06:33.935Z,33.47
2019-04-29T16:09:50.766Z,33.43
2019-04-29T16:12:21.372Z,33.66
2019-04-29T16:14:53.176Z,34.18
2019-04-29T16:17:25.164Z,33.11
2019-04-29T16:19:56.981Z,33.66
2019-04-29T16:22:28.853Z,34.05
2019-04-29T16:25:04.819Z,33.00
2019-04-29T16:27:34.120Z,33.02
2019-04-29T16:30:06.229Z,33.04
2019-04-29T16:32:41.673Z,33.55
2019-04-29T16:35:18.007Z,33.45
2019-04-29T16:37:46.843Z,34.12
2019-04-29T16:40:20.477Z,34.50
2019-04-29T16:43:09.780Z,34.16
2019-04-29T16:46:24.255Z,34.26
2019-04-29T16:48:52.033Z,34.00
2019-04-29T16:51:23.789Z,34.84
2019-04-29T16:53:56.150Z,34.37
2019-04-29T16:56:29.127Z,35.19
2019-04-29T16:59:08.868Z,34.38
2019-04-29T17:01:36.582Z,34.25
2019-04-29T17:04:09.366Z,33.83
2019-04-29T17:06:43.422Z,33.96
2019-04-29T17:09:32.642Z,33.79
2019-04-29T17:12:04.911Z,34.73
2019-04-29T17:15:02.379Z,36.34
2019-04-29T17:17:16.161Z,36.88
2019-04-29T17:19:49.936Z,36.67
2019-04-29T17:22:26.898Z,36.35
2019-04-29T17:24:55.124Z,36.32
2019-04-29T17:27:47.155Z,36.41
2019-04-29T17:30:46.443Z,38.01
2019-04-29T17:33:27.747Z,36.28
2019-04-29T17:35:59.524Z,36.81
2019-04-29T17:38:31.305Z,36.15
2019-04-29T17:41:03.238Z,38.41
2019-04-29T17:43:51.644Z,38.96
2019-04-29T17:46:52.601Z,39.59
2019-04-29T17:49:53.219Z,39.18
2019-04-29T17:52:28.507Z,37.72
2019-04-29T17:55:09.141Z,39.01
2019-04-29T17:57:45.801Z,38.73
2019-04-29T18:00:55.486Z,37.55
2019-04-29T18:03:46.645Z,38.68
2019-04-29T18:06:24.549Z,40.53
2019-04-29T18:09:07.366Z,42.40
2019-04-29T18:11:50.343Z,43.53
2019-04-29T18:14:14.989Z,43.86
2019-04-29T18:16:47.944Z,44.37
2019-04-29T18:19:25.955Z,43.59
2019-04-29T18:22:16.248Z,43.00
2019-04-29T18:25:03.167Z,44.21
2019-04-29T18:27:36.872Z,45.66
2019-04-29T18:30:12.250Z,46.14
2019-04-29T18:32:46.629Z,47.14
2019-04-29T18:35:17.902Z,46.86
2019-04-29T18:37:49.692Z,47.29
2019-04-29T18:40:21.891Z,47.61
2019-04-29T18:42:55.518Z,47.39
2019-04-29T18:45:30.023Z,47.82
2019-04-29T18:48:01.069Z,48.51
2019-04-29T18:50:34.215Z,48.53
2019-04-29T18:53:06.942Z,49.99
2019-04-29T18:55:39.031Z,49.76
2019-04-29T18:58:10.858Z,50.26
2019-04-29T19:00:51.444Z,49.77
2019-04-29T19:03:22.301Z,50.20
2019-04-29T19:05:57.031Z,50.97
2019-04-29T19:08:31.782Z,51.88
2019-04-29T19:11:02.914Z,52.14
2019-04-29T19:13:36.250Z,52.80
2019-04-29T19:16:10.448Z,53.66
2019-04-29T19:18:42.930Z,54.34
2019-04-29T19:21:15.499Z,54.86
2019-04-29T19:23:52.570Z,55.22
2019-04-29T19:26:25.835Z,55.23
2019-04-29T19:28:56.900Z,55.47
2019-04-29T19:31:28.667Z,55.63
2019-04-29T19:34:02.029Z,55.84
2019-04-29T19:36:35.000Z,55.80
2019-04-29T19:39:08.477Z,56.28
2019-04-29T19:41:42.619Z,56.42
2019-04-29T19:44:15.529Z,56.99
2019-04-29T19:46:47.639Z,57.39
2019-04-29T19:49:20.760Z,57.35
2019-04-29T19:51:52.546Z,57.26
2019-04-29T19:54:28.464Z,57.82
2019-04-29T19:57:03.404Z,58.65
2019-04-29T19:59:32.042Z,58.50
2019-04-29T20:02:09.363Z,58.62
2019-04-29T20:04:58.987Z,59.48
2019-04-29T20:07:30.013Z,59.44
2019-04-29T20:10:05.566Z,59.87
2019-04-29T20:12:37.696Z,59.95
2019-04-29T20:15:10.019Z,60.25
2019-04-29T20:18:00.555Z,60.24
2019-04-29T20:20:38.695Z,60.29
2019-04-29T20:23:10.991Z,60.68
2019-04-29T20:25:43.217Z,61.47
2019-04-29T20:28:18.491Z,61.85
2019-04-29T20:30:57.001Z,61.83
2019-04-29T20:33:25.506Z,61.96
2019-04-29T20:36:02.128Z,62.39
2019-04-29T20:38:53.019Z,62.27
2019-04-29T20:41:40.298Z,62.48
2019-04-29T20:44:00.961Z,62.43
2019-04-29T20:46:43.231Z,62.90
2019-04-29T20:49:06.658Z,63.02
2019-04-29T20:51:48.683Z,63.53
2019-04-29T20:54:19.898Z,64.18
2019-04-29T20:57:01.941Z,63.73
2019-04-29T20:59:26.293Z,64.02
2019-04-29T21:02:12.135Z,64.50
2019-04-29T21:04:46.298Z,64.71
2019-04-29T21:07:17.121Z,65.61
2019-04-29T21:09:47.220Z,65.50
2019-04-29T21:12:38.570Z,65.32
2019-04-29T21:15:18.005Z,65.62
2019-04-29T21:17:55.614Z,66.17
2019-04-29T21:20:30.168Z,66.01
2019-04-29T21:23:01.971Z,66.12
2019-04-29T21:25:35.436Z,65.62
2019-04-29T21:28:07.318Z,65.76
2019-04-29T21:30:42.725Z,65.83
2019-04-29T21:33:17.919Z,65.89
2019-04-29T21:35:58.597Z,65.99
2019-04-29T21:39:01.373Z,66.69
2019-04-29T21:41:40.308Z,66.84
2019-04-29T21:44:12.137Z,67.12
2019-04-29T21:46:45.230Z,66.97
2019-04-29T21:49:17.145Z,67.33
2019-04-29T21:51:49.947Z,67.22
2019-04-29T21:54:22.848Z,67.28
2019-04-29T21:56:56.561Z,67.35
2019-04-29T21:59:28.447Z,67.55
2019-04-29T22:02:12.994Z,67.30
2019-04-29T22:04:47.061Z,67.52
2019-04-29T22:07:25.792Z,67.50
2019-04-29T22:09:57.810Z,67.30
2019-04-29T22:12:29.648Z,67.37
2019-04-29T22:15:01.589Z,67.77
2019-04-29T22:17:35.875Z,67.92
2019-04-29T22:20:10.886Z,67.80
2019-04-29T22:22:42.804Z,67.82
2019-04-29T22:25:16.236Z,67.76
2019-04-29T22:27:48.115Z,67.60
2019-04-29T22:30:20.089Z,67.65
2019-04-29T22:32:58.077Z,67.65
2019-04-29T22:35:27.837Z,68.07
2019-04-29T22:37:59.914Z,67.87
2019-04-29T22:40:34.137Z,67.74
2019-04-29T22:43:40.369Z,67.73
2019-04-29T22:46:17.759Z,67.70
2019-04-29T22:48:53.288Z,68.60
2019-04-29T22:51:26.749Z,68.58
2019-04-29T22:53:58.962Z,68.58
2019-04-29T22:56:30.950Z,68.88
2019-04-29T22:59:03.220Z,68.90
2019-04-29T23:01:42.242Z,69.07
2019-04-29T23:04:14.565Z,69.18
2019-04-29T23:06:56.102Z,69.54
2019-04-29T23:09:29.483Z,69.53
2019-04-29T23:12:01.240Z,69.38
2019-04-29T23:14:33.087Z,69.54
2019-04-29T23:17:18.634Z,69.74
2019-04-29T23:19:55.141Z,69.64
2019-04-29T23:22:48.319Z,69.84
2019-04-29T23:25:42.059Z,70.28
2019-04-29T23:28:13.955Z,69.83
2019-04-29T23:30:47.875Z,70.19
2019-04-29T23:33:22.855Z,70.32
2019-04-29T23:36:13.538Z,69.86
2019-04-29T23:38:44.579Z,69.87
2019-04-29T23:41:34.990Z,70.07
2019-04-29T23:44:08.857Z,69.74
2019-04-29T23:46:40.315Z,70.34
2019-04-29T23:49:12.096Z,70.60
2019-04-29T23:51:44.065Z,71.05
2019-04-29T23:54:16.017Z,70.53
2019-04-29T23:57:08.810Z,70.55
2019-04-29T23:59:47.492Z,71.26
